Private Wetterstation Sandau
Wetterdaten: Dienstag, 16.10.2012
Datum Zeit Temp. A. Feuchte A. Luftdruck Regen Wind Richtung Richtung Taupunkt Windchill
16.10.2012 00:01 5,8 C 89 % 1010,6 hPa 0,0 l/m 3,6 km/h (1 Bft) S-SO 157 4,1 C 5,8 C
16.10.2012 00:06 5,7 C 89 % 1010,7 hPa 0,0 l/m 5,0 km/h (1 Bft) S-SO 157 4,0 C 4,9 C
16.10.2012 00:11 5,6 C 89 % 1010,6 hPa 0,0 l/m 6,1 km/h (2 Bft) S-SW 202 3,9 C 4,4 C
16.10.2012 00:16 5,6 C 89 % 1010,5 hPa 0,0 l/m 5,8 km/h (2 Bft) SW 225 3,9 C 4,5 C
16.10.2012 00:21 5,5 C 89 % 1010,4 hPa 0,0 l/m 3,2 km/h (1 Bft) W-SW 247 3,8 C 5,5 C
16.10.2012 00:26 5,5 C 89 % 1010,5 hPa 0,0 l/m 4,0 km/h (1 Bft) S-SW 202 3,8 C 5,5 C
16.10.2012 00:31 5,5 C 89 % 1010,7 hPa 0,0 l/m 2,9 km/h (1 Bft) S 180 3,8 C 5,5 C
16.10.2012 00:36 5,4 C 89 % 1010,8 hPa 0,0 l/m 4,0 km/h (1 Bft) S 180 3,7 C 5,4 C
16.10.2012 00:41 5,4 C 89 % 1010,6 hPa 0,0 l/m 6,5 km/h (2 Bft) S-SW 202 3,7 C 4,0 C
16.10.2012 00:46 5,3 C 89 % 1010,6 hPa 0,0 l/m 3,2 km/h (1 Bft) S-SO 157 3,6 C 5,3 C
16.10.2012 00:51 5,3 C 89 % 1010,7 hPa 0,0 l/m 3,2 km/h (1 Bft) S 180 3,6 C 5,3 C
16.10.2012 00:56 5,2 C 89 % 1010,8 hPa 0,0 l/m 5,0 km/h (1 Bft) S 180 3,5 C 4,3 C
16.10.2012 01:01 5,1 C 89 % 1010,7 hPa 0,0 l/m 1,8 km/h (1 Bft) S 180 3,4 C 5,1 C
16.10.2012 01:06 5,1 C 89 % 1010,9 hPa 0,0 l/m 3,2 km/h (1 Bft) S-SW 202 3,4 C 5,1 C
16.10.2012 01:11 5,1 C 89 % 1010,8 hPa 0,0 l/m 0,0 km/h (0 Bft) S 180 3,4 C 5,1 C
16.10.2012 01:16 5,0 C 89 % 1010,7 hPa 0,0 l/m 2,2 km/h (1 Bft) S-SW 202 3,3 C 5,0 C
16.10.2012 01:21 4,9 C 89 % 1010,7 hPa 0,0 l/m 0,0 km/h (0 Bft) S 180 3,2 C 4,9 C
16.10.2012 01:26 4,9 C 89 % 1010,9 hPa 0,0 l/m 0,0 km/h (0 Bft) S 180 3,2 C 4,9 C
16.10.2012 01:31 4,9 C 89 % 1010,9 hPa 0,0 l/m 2,2 km/h (1 Bft) S-SO 157 3,2 C 4,9 C
16.10.2012 01:36 4,8 C 89 % 1010,9 hPa 0,0 l/m 2,2 km/h (1 Bft) S 180 3,1 C 4,8 C
16.10.2012 01:41 4,8 C 90 % 1010,9 hPa 0,0 l/m 1,8 km/h (1 Bft) S-SO 157 3,3 C 4,8 C
16.10.2012 01:46 4,7 C 90 % 1010,9 hPa 0,0 l/m 4,7 km/h (1 Bft) S-SO 157 3,2 C 3,9 C
16.10.2012 01:51 4,6 C 90 % 1011,0 hPa 0,0 l/m 11,2 km/h (2 Bft) S-SO 157 3,1 C 1,9 C
16.10.2012 01:56 4,6 C 90 % 1011,0 hPa 0,0 l/m 5,4 km/h (1 Bft) SW 225 3,1 C 3,5 C
16.10.2012 02:01 4,5 C 90 % 1010,9 hPa 0,0 l/m 5,8 km/h (2 Bft) S 180 3,0 C 3,2 C
16.10.2012 02:06 4,5 C 90 % 1010,7 hPa 0,0 l/m 4,0 km/h (1 Bft) SW 225 3,0 C 4,5 C
16.10.2012 02:11 4,6 C 90 % 1010,7 hPa 0,0 l/m 4,7 km/h (1 Bft) S-SO 157 3,1 C 3,8 C
16.10.2012 02:16 4,5 C 90 % 1010,7 hPa 0,0 l/m 12,2 km/h (2 Bft) S 180 3,0 C 1,6 C
16.10.2012 02:21 4,5 C 90 % 1010,9 hPa 0,0 l/m 12,2 km/h (2 Bft) S-SW 202 3,0 C 1,6 C
16.10.2012 02:26 4,5 C 90 % 1010,9 hPa 0,0 l/m 6,5 km/h (2 Bft) S 180 3,0 C 3,0 C
16.10.2012 02:31 4,5 C 90 % 1010,9 hPa 0,0 l/m 4,0 km/h (1 Bft) S-SO 157 3,0 C 4,5 C
16.10.2012 02:36 4,5 C 90 % 1010,8 hPa 0,0 l/m 3,2 km/h (1 Bft) S-SW 202 3,0 C 4,5 C
16.10.2012 02:41 4,5 C 90 % 1010,7 hPa 0,0 l/m 3,6 km/h (1 Bft) S-SW 202 3,0 C 4,5 C
16.10.2012 02:46 4,5 C 90 % 1010,7 hPa 0,0 l/m 2,9 km/h (1 Bft) S 180 3,0 C 4,5 C
16.10.2012 02:51 4,4 C 90 % 1010,6 hPa 0,0 l/m 4,0 km/h (1 Bft) S-SW 202 2,9 C 4,4 C
16.10.2012 02:56 4,4 C 90 % 1010,7 hPa 0,0 l/m 6,5 km/h (2 Bft) S-SW 202 2,9 C 2,9 C
16.10.2012 03:01 4,4 C 91 % 1010,7 hPa 0,0 l/m 8,3 km/h (2 Bft) S-SW 202 3,1 C 2,4 C
16.10.2012 03:06 4,4 C 91 % 1010,8 hPa 0,0 l/m 8,3 km/h (2 Bft) SO 135 3,1 C 2,4 C
16.10.2012 03:11 4,4 C 91 % 1010,7 hPa 0,0 l/m 6,1 km/h (2 Bft) S-SW 202 3,1 C 3,0 C
16.10.2012 03:16 4,4 C 91 % 1010,6 hPa 0,0 l/m 6,1 km/h (2 Bft) S-SW 202 3,1 C 3,0 C
16.10.2012 03:21 4,4 C 91 % 1010,6 hPa 0,0 l/m 6,1 km/h (2 Bft) W-SW 247 3,1 C 3,0 C
16.10.2012 03:26 4,4 C 91 % 1010,7 hPa 0,0 l/m 3,6 km/h (1 Bft) S 180 3,1 C 4,4 C
16.10.2012 03:31 4,4 C 91 % 1010,7 hPa 0,0 l/m 7,2 km/h (2 Bft) W-SW 247 3,1 C 2,7 C
16.10.2012 03:36 4,4 C 91 % 1010,6 hPa 0,0 l/m 7,2 km/h (2 Bft) SW 225 3,1 C 2,7 C
16.10.2012 03:41 4,4 C 91 % 1010,6 hPa 0,0 l/m 6,8 km/h (2 Bft) S-SO 157 3,1 C 2,8 C
16.10.2012 03:46 4,5 C 91 % 1010,7 hPa 0,0 l/m 8,3 km/h (2 Bft) S-SW 202 3,2 C 2,5 C
16.10.2012 03:51 4,4 C 91 % 1010,6 hPa 0,0 l/m 2,5 km/h (1 Bft) S 180 3,1 C 4,4 C
16.10.2012 03:56 4,4 C 91 % 1010,8 hPa 0,0 l/m 5,4 km/h (1 Bft) S-SW 202 3,1 C 3,2 C
16.10.2012 04:01 4,5 C 91 % 1010,9 hPa 0,0 l/m 4,7 km/h (1 Bft) W-SW 247 3,2 C 3,6 C
16.10.2012 04:06 4,5 C 91 % 1011,0 hPa 0,0 l/m 8,3 km/h (2 Bft) S-SW 202 3,2 C 2,5 C
16.10.2012 04:11 4,5 C 91 % 1011,0 hPa 0,0 l/m 7,2 km/h (2 Bft) S-SO 157 3,2 C 2,8 C
16.10.2012 04:16 4,5 C 91 % 1010,9 hPa 0,0 l/m 4,7 km/h (1 Bft) S 180 3,2 C 3,6 C
16.10.2012 04:21 4,5 C 91 % 1010,9 hPa 0,0 l/m 7,6 km/h (2 Bft) SW 225 3,2 C 2,7 C
16.10.2012 04:26 4,5 C 91 % 1010,6 hPa 0,0 l/m 5,8 km/h (2 Bft) S 180 3,2 C 3,2 C
16.10.2012 04:31 4,5 C 91 % 1010,9 hPa 0,0 l/m 6,8 km/h (2 Bft) SW 225 3,2 C 2,9 C
16.10.2012 04:36 4,5 C 91 % 1010,6 hPa 0,0 l/m 4,3 km/h (1 Bft) S-SO 157 3,2 C 4,5 C
16.10.2012 04:41 4,4 C 91 % 1010,7 hPa 0,0 l/m 4,7 km/h (1 Bft) S 180 3,1 C 3,5 C
16.10.2012 04:46 4,4 C 91 % 1010,6 hPa 0,0 l/m 11,5 km/h (2 Bft) S-SW 202 3,1 C 1,6 C
16.10.2012 04:51 4,4 C 91 % 1010,6 hPa 0,0 l/m 3,2 km/h (1 Bft) S 180 3,1 C 4,4 C
16.10.2012 04:56 4,4 C 91 % 1010,6 hPa 0,0 l/m 3,2 km/h (1 Bft) S-SW 202 3,1 C 4,4 C
16.10.2012 05:01 4,3 C 91 % 1010,6 hPa 0,0 l/m 5,4 km/h (1 Bft) W-SW 247 3,0 C 3,1 C
16.10.2012 05:06 4,3 C 91 % 1010,7 hPa 0,0 l/m 5,8 km/h (2 Bft) SW 225 3,0 C 3,0 C
16.10.2012 05:11 4,3 C 91 % 1010,6 hPa 0,0 l/m 6,5 km/h (2 Bft) SO 135 3,0 C 2,8 C
16.10.2012 05:16 4,3 C 91 % 1010,9 hPa 0,0 l/m 12,2 km/h (2 Bft) S-SO 157 3,0 C 1,4 C
16.10.2012 05:21 4,3 C 91 % 1010,8 hPa 0,0 l/m 7,6 km/h (2 Bft) W-SW 247 3,0 C 2,4 C
16.10.2012 05:26 4,3 C 91 % 1010,9 hPa 0,0 l/m 10,1 km/h (2 Bft) S-SW 202 3,0 C 1,8 C
16.10.2012 05:31 4,3 C 91 % 1010,8 hPa 0,0 l/m 2,5 km/h (1 Bft) S 180 3,0 C 4,3 C
16.10.2012 05:36 4,4 C 91 % 1010,8 hPa 0,0 l/m 3,6 km/h (1 Bft) S 180 3,1 C 4,4 C
16.10.2012 05:41 4,4 C 91 % 1010,7 hPa 0,0 l/m 2,2 km/h (1 Bft) SW 225 3,1 C 4,4 C
16.10.2012 05:46 4,4 C 91 % 1010,8 hPa 0,0 l/m 6,5 km/h (2 Bft) S-SW 202 3,1 C 2,9 C
16.10.2012 05:51 4,4 C 91 % 1010,7 hPa 0,0 l/m 11,5 km/h (2 Bft) SW 225 3,1 C 1,6 C
16.10.2012 05:56 4,3 C 91 % 1010,8 hPa 0,0 l/m 3,2 km/h (1 Bft) S-SW 202 3,0 C 4,3 C
16.10.2012 06:01 4,3 C 91 % 1010,8 hPa 0,0 l/m 2,9 km/h (1 Bft) S 180 3,0 C 4,3 C
16.10.2012 06:06 4,3 C 91 % 1010,6 hPa 0,0 l/m 9,4 km/h (2 Bft) S 180 3,0 C 2,0 C
16.10.2012 06:11 4,3 C 91 % 1010,7 hPa 0,0 l/m 5,8 km/h (2 Bft) S-SW 202 3,0 C 3,0 C
16.10.2012 06:16 4,2 C 91 % 1010,7 hPa 0,0 l/m 10,8 km/h (2 Bft) W-SW 247 2,9 C 1,5 C
16.10.2012 06:21 4,2 C 91 % 1010,6 hPa 0,0 l/m 6,5 km/h (2 Bft) S 180 2,9 C 2,6 C
16.10.2012 06:26 4,2 C 91 % 1010,5 hPa 0,0 l/m 2,9 km/h (1 Bft) S-SO 157 2,9 C 4,2 C
16.10.2012 06:31 4,2 C 92 % 1010,6 hPa 0,0 l/m 4,0 km/h (1 Bft) SW 225 3,0 C 4,2 C
16.10.2012 06:36 4,2 C 92 % 1010,7 hPa 0,0 l/m 12,6 km/h (3 Bft) S-SW 202 3,0 C 1,2 C
16.10.2012 06:41 4,2 C 92 % 1010,6 hPa 0,0 l/m 3,2 km/h (1 Bft) SW 225 3,0 C 4,2 C
16.10.2012 06:46 4,2 C 92 % 1010,5 hPa 0,0 l/m 15,1 km/h (3 Bft) S-SW 202 3,0 C 0,7 C
16.10.2012 06:51 4,2 C 92 % 1010,4 hPa 0,0 l/m 10,1 km/h (2 Bft) S 180 3,0 C 1,7 C
16.10.2012 06:56 4,3 C 92 % 1010,4 hPa 0,0 l/m 6,5 km/h (2 Bft) S-SW 202 3,1 C 2,8 C
16.10.2012 07:01 4,3 C 92 % 1010,5 hPa 0,0 l/m 3,6 km/h (1 Bft) S-SO 157 3,1 C 4,3 C
16.10.2012 07:06 4,3 C 92 % 1010,6 hPa 0,0 l/m 3,6 km/h (1 Bft) S 180 3,1 C 4,3 C
16.10.2012 07:11 4,3 C 92 % 1010,5 hPa 0,0 l/m 2,9 km/h (1 Bft) SO 135 3,1 C 4,3 C
16.10.2012 07:16 4,3 C 92 % 1010,4 hPa 0,0 l/m 6,1 km/h (2 Bft) S-SW 202 3,1 C 2,9 C
16.10.2012 07:21 4,3 C 92 % 1010,6 hPa 0,0 l/m 8,6 km/h (2 Bft) S 180 3,1 C 2,2 C
16.10.2012 07:26 4,3 C 92 % 1010,6 hPa 0,0 l/m 8,6 km/h (2 Bft) SW 225 3,1 C 2,2 C
16.10.2012 07:31 4,3 C 92 % 1010,6 hPa 0,0 l/m 3,2 km/h (1 Bft) S-SW 202 3,1 C 4,3 C
16.10.2012 07:36 4,4 C 92 % 1010,4 hPa 0,0 l/m 2,2 km/h (1 Bft) S-SO 157 3,2 C 4,4 C
16.10.2012 07:41 4,4 C 92 % 1010,5 hPa 0,0 l/m 4,0 km/h (1 Bft) S-SO 157 3,2 C 4,4 C
16.10.2012 07:46 4,4 C 92 % 1010,5 hPa 0,0 l/m 0,0 km/h (0 Bft) W-SW 247 3,2 C 4,4 C
16.10.2012 07:51 4,4 C 92 % 1010,6 hPa 0,0 l/m 3,6 km/h (1 Bft) S-SO 157 3,2 C 4,4 C
16.10.2012 07:56 4,4 C 92 % 1010,4 hPa 0,0 l/m 2,5 km/h (1 Bft) SO 135 3,2 C 4,4 C
16.10.2012 08:01 4,4 C 92 % 1010,6 hPa 0,0 l/m 4,0 km/h (1 Bft) SO 135 3,2 C 4,4 C
16.10.2012 08:06 4,5 C 92 % 1010,7 hPa 0,0 l/m 6,8 km/h (2 Bft) S 180 3,3 C 2,9 C
16.10.2012 08:11 4,5 C 92 % 1010,7 hPa 0,0 l/m 4,3 km/h (1 Bft) SO 135 3,3 C 4,5 C
16.10.2012 08:16 4,6 C 92 % 1010,8 hPa 0,0 l/m 6,8 km/h (2 Bft) S-SO 157 3,4 C 3,0 C
16.10.2012 08:21 4,6 C 92 % 1010,5 hPa 0,0 l/m 5,8 km/h (2 Bft) SW 225 3,4 C 3,3 C
16.10.2012 08:26 4,8 C 92 % 1010,6 hPa 0,0 l/m 3,6 km/h (1 Bft) S-SW 202 3,6 C 4,8 C
16.10.2012 08:31 4,8 C 92 % 1010,7 hPa 0,0 l/m 8,6 km/h (2 Bft) SW 225 3,6 C 2,7 C
16.10.2012 08:36 4,9 C 92 % 1010,7 hPa 0,0 l/m 7,9 km/h (2 Bft) S 180 3,7 C 3,0 C
16.10.2012 08:41 4,9 C 92 % 1010,7 hPa 0,0 l/m 1,8 km/h (1 Bft) S-SW 202 3,7 C 4,9 C
16.10.2012 08:46 4,9 C 92 % 1010,7 hPa 0,0 l/m 8,6 km/h (2 Bft) W-SW 247 3,7 C 2,9 C
16.10.2012 08:51 4,9 C 91 % 1010,8 hPa 0,0 l/m 5,0 km/h (1 Bft) S 180 3,6 C 4,0 C
16.10.2012 08:56 5,0 C 91 % 1010,8 hPa 0,0 l/m 1,4 km/h (1 Bft) O-SO 112 3,7 C 5,0 C
16.10.2012 09:01 5,0 C 91 % 1010,8 hPa 0,0 l/m 3,2 km/h (1 Bft) S 180 3,7 C 5,0 C
16.10.2012 09:06 5,0 C 91 % 1010,9 hPa 0,0 l/m 4,3 km/h (1 Bft) S-SW 202 3,7 C 5,0 C
16.10.2012 09:11 5,1 C 91 % 1010,5 hPa 0,0 l/m 0,0 km/h (0 Bft) SW 225 3,8 C 5,1 C
16.10.2012 09:16 5,1 C 91 % 1010,6 hPa 0,0 l/m 5,0 km/h (1 Bft) S-SO 157 3,8 C 4,2 C
16.10.2012 09:21 5,2 C 91 % 1010,6 hPa 0,0 l/m 3,2 km/h (1 Bft) SO 135 3,9 C 5,2 C
16.10.2012 09:26 5,3 C 91 % 1010,6 hPa 0,0 l/m 6,8 km/h (2 Bft) S-SO 157 4,0 C 3,8 C
16.10.2012 09:31 5,4 C 91 % 1010,7 hPa 0,0 l/m 4,7 km/h (1 Bft) S-SO 157 4,1 C 4,7 C
16.10.2012 09:36 5,5 C 91 % 1010,6 hPa 0,0 l/m 15,8 km/h (3 Bft) S 180 4,2 C 2,2 C
16.10.2012 09:41 5,6 C 91 % 1010,7 hPa 0,0 l/m 5,8 km/h (2 Bft) SO 135 4,2 C 4,5 C
16.10.2012 09:46 5,8 C 91 % 1010,7 hPa 0,0 l/m 7,6 km/h (2 Bft) S-SW 202 4,4 C 4,2 C
16.10.2012 09:51 5,9 C 91 % 1010,8 hPa 0,0 l/m 14,4 km/h (3 Bft) SW 225 4,5 C 2,9 C
16.10.2012 09:56 6,1 C 91 % 1010,8 hPa 0,0 l/m 1,8 km/h (1 Bft) S-SO 157 4,7 C 6,1 C
16.10.2012 10:01 6,2 C 91 % 1010,8 hPa 0,0 l/m 5,4 km/h (1 Bft) S-SO 157 4,8 C 5,3 C
16.10.2012 10:06 6,4 C 91 % 1010,5 hPa 0,0 l/m 5,0 km/h (1 Bft) S 180 5,0 C 5,7 C
16.10.2012 10:11 6,5 C 91 % 1010,6 hPa 0,0 l/m 14,0 km/h (3 Bft) SO 135 5,1 C 3,7 C
16.10.2012 10:16 6,8 C 90 % 1010,6 hPa 0,0 l/m 12,2 km/h (2 Bft) S-SW 202 5,3 C 4,4 C
16.10.2012 10:21 6,9 C 90 % 1010,6 hPa 0,0 l/m 10,1 km/h (2 Bft) S-SO 157 5,4 C 4,9 C
16.10.2012 10:26 7,0 C 90 % 1010,7 hPa 0,0 l/m 11,9 km/h (2 Bft) S 180 5,5 C 4,7 C
16.10.2012 10:31 7,2 C 90 % 1010,7 hPa 0,0 l/m 6,8 km/h (2 Bft) S 180 5,7 C 6,0 C
16.10.2012 10:36 7,2 C 89 % 1010,8 hPa 0,0 l/m 4,7 km/h (1 Bft) S-SW 202 5,5 C 6,7 C
16.10.2012 10:41 7,4 C 89 % 1010,7 hPa 0,0 l/m 15,8 km/h (3 Bft) S-SW 202 5,7 C 4,6 C
16.10.2012 10:46 7,6 C 89 % 1010,6 hPa 0,0 l/m 8,6 km/h (2 Bft) S 180 5,9 C 6,1 C
16.10.2012 10:51 7,8 C 88 % 1010,6 hPa 0,0 l/m 2,5 km/h (1 Bft) S 180 5,9 C 7,8 C
16.10.2012 10:56 7,9 C 88 % 1010,6 hPa 0,0 l/m 10,8 km/h (2 Bft) S-SO 157 6,0 C 6,0 C
16.10.2012 11:01 8,1 C 88 % 1010,6 hPa 0,0 l/m 6,1 km/h (2 Bft) S-SW 202 6,2 C 7,3 C
16.10.2012 11:06 8,3 C 88 % 1010,6 hPa 0,0 l/m 9,7 km/h (2 Bft) SW 225 6,4 C 6,7 C
16.10.2012 11:11 8,3 C 87 % 1010,7 hPa 0,0 l/m 9,4 km/h (2 Bft) S-SW 202 6,3 C 6,7 C
16.10.2012 11:16 8,4 C 87 % 1010,8 hPa 0,0 l/m 11,9 km/h (2 Bft) S-SW 202 6,4 C 6,4 C
16.10.2012 11:21 8,5 C 86 % 1010,7 hPa 0,0 l/m 8,6 km/h (2 Bft) S-SW 202 6,3 C 7,1 C
16.10.2012 11:26 8,6 C 86 % 1010,6 hPa 0,0 l/m 11,5 km/h (2 Bft) S-SO 157 6,4 C 6,7 C
16.10.2012 11:31 8,8 C 86 % 1010,5 hPa 0,0 l/m 6,5 km/h (2 Bft) S 180 6,6 C 8,0 C
16.10.2012 11:36 8,9 C 85 % 1010,3 hPa 0,0 l/m 12,2 km/h (2 Bft) S-SW 202 6,5 C 7,0 C
16.10.2012 11:41 8,9 C 85 % 1010,4 hPa 0,0 l/m 8,3 km/h (2 Bft) SO 135 6,5 C 7,7 C
16.10.2012 11:46 9,1 C 85 % 1010,3 hPa 0,0 l/m 5,8 km/h (2 Bft) S-SW 202 6,7 C 8,5 C
16.10.2012 11:51 9,3 C 84 % 1010,3 hPa 0,0 l/m 7,2 km/h (2 Bft) S-SW 202 6,7 C 8,4 C
16.10.2012 11:56 9,5 C 84 % 1010,3 hPa 0,0 l/m 20,9 km/h (4 Bft) W-SW 247 6,9 C 6,7 C
16.10.2012 12:01 9,6 C 84 % 1010,3 hPa 0,0 l/m 11,2 km/h (2 Bft) S-SW 202 7,0 C 8,0 C
16.10.2012 12:06 9,8 C 83 % 1010,3 hPa 0,0 l/m 5,0 km/h (1 Bft) S-SW 202 7,1 C 9,5 C
16.10.2012 12:11 9,9 C 83 % 1010,3 hPa 0,0 l/m 7,6 km/h (2 Bft) S-SW 202 7,2 C 9,0 C
16.10.2012 12:16 10,0 C 82 % 1010,4 hPa 0,0 l/m 18,4 km/h (3 Bft) S-SW 202 7,1 C 7,5 C
16.10.2012 12:21 10,1 C 82 % 1010,4 hPa 0,0 l/m 4,3 km/h (1 Bft) S-SW 202 7,2 C 10,1 C
16.10.2012 12:26 10,2 C 82 % 1010,4 hPa 0,0 l/m 6,5 km/h (2 Bft) S-SW 202 7,3 C 10,2 C
16.10.2012 12:31 10,4 C 81 % 1010,3 hPa 0,0 l/m 10,8 km/h (2 Bft) S-SO 157 7,3 C 10,4 C
16.10.2012 12:36 10,5 C 81 % 1010,4 hPa 0,0 l/m 6,1 km/h (2 Bft) SW 225 7,4 C 10,5 C
16.10.2012 12:41 10,7 C 80 % 1010,3 hPa 0,0 l/m 6,8 km/h (2 Bft) S-SW 202 7,4 C 10,7 C
16.10.2012 12:46 10,8 C 80 % 1010,3 hPa 0,0 l/m 14,8 km/h (3 Bft) S-SO 157 7,5 C 10,8 C
16.10.2012 12:51 11,0 C 79 % 1010,3 hPa 0,0 l/m 7,2 km/h (2 Bft) SO 135 7,5 C 11,0 C
16.10.2012 12:56 11,2 C 79 % 1010,3 hPa 0,0 l/m 9,4 km/h (2 Bft) SO 135 7,7 C 11,2 C
16.10.2012 13:01 11,4 C 79 % 1010,3 hPa 0,0 l/m 14,8 km/h (3 Bft) O-SO 112 7,9 C 11,4 C
16.10.2012 13:06 11,5 C 78 % 1010,2 hPa 0,0 l/m 9,4 km/h (2 Bft) S 180 7,8 C 11,5 C
16.10.2012 13:11 11,6 C 77 % 1010,3 hPa 0,0 l/m 6,5 km/h (2 Bft) S-SO 157 7,7 C 11,6 C
16.10.2012 13:16 11,6 C 77 % 1010,0 hPa 0,0 l/m 8,3 km/h (2 Bft) S-SW 202 7,7 C 11,6 C
16.10.2012 13:21 11,8 C 76 % 1010,1 hPa 0,0 l/m 9,0 km/h (2 Bft) SW 225 7,7 C 11,8 C
16.10.2012 13:26 11,9 C 76 % 1010,1 hPa 0,0 l/m 8,3 km/h (2 Bft) S-SW 202 7,8 C 11,9 C
16.10.2012 13:31 11,9 C 76 % 1010,1 hPa 0,0 l/m 10,8 km/h (2 Bft) S-SO 157 7,8 C 11,9 C
16.10.2012 13:36 12,1 C 75 % 1010,0 hPa 0,0 l/m 7,6 km/h (2 Bft) S 180 7,8 C 12,1 C
16.10.2012 13:41 12,3 C 75 % 1009,9 hPa 0,0 l/m 16,6 km/h (3 Bft) SW 225 8,0 C 12,3 C
16.10.2012 13:46 12,4 C 74 % 1009,8 hPa 0,0 l/m 8,6 km/h (2 Bft) S-SO 157 7,9 C 12,4 C
16.10.2012 13:51 12,6 C 74 % 1009,6 hPa 0,0 l/m 14,8 km/h (3 Bft) SW 225 8,1 C 12,6 C
16.10.2012 13:56 12,8 C 73 % 1009,7 hPa 0,0 l/m 16,6 km/h (3 Bft) S 180 8,1 C 12,8 C
16.10.2012 14:01 13,0 C 72 % 1009,7 hPa 0,0 l/m 6,1 km/h (2 Bft) S-SW 202 8,1 C 13,0 C
16.10.2012 14:06 13,3 C 72 % 1009,7 hPa 0,0 l/m 14,0 km/h (3 Bft) S-SO 157 8,4 C 13,3 C
16.10.2012 14:11 13,4 C 71 % 1009,6 hPa 0,0 l/m 5,0 km/h (1 Bft) SW 225 8,3 C 13,4 C
16.10.2012 14:16 13,5 C 70 % 1009,5 hPa 0,0 l/m 5,0 km/h (1 Bft) S-SW 202 8,1 C 13,5 C
16.10.2012 14:21 13,6 C 69 % 1009,6 hPa 0,0 l/m 10,1 km/h (2 Bft) S-SO 157 8,0 C 13,6 C
16.10.2012 14:26 13,6 C 69 % 1009,5 hPa 0,0 l/m 4,3 km/h (1 Bft) S-SO 157 8,0 C 13,6 C
16.10.2012 14:31 13,6 C 68 % 1009,5 hPa 0,0 l/m 15,8 km/h (3 Bft) S-SO 157 7,8 C 13,6 C
16.10.2012 14:36 13,7 C 68 % 1009,5 hPa 0,0 l/m 12,6 km/h (3 Bft) S-SW 202 7,9 C 13,7 C
16.10.2012 14:41 13,6 C 68 % 1009,3 hPa 0,0 l/m 4,7 km/h (1 Bft) SO 135 7,8 C 13,6 C
16.10.2012 14:46 13,6 C 68 % 1009,2 hPa 0,0 l/m 21,6 km/h (4 Bft) SW 225 7,8 C 13,6 C
16.10.2012 14:51 13,5 C 67 % 1009,4 hPa 0,0 l/m 9,0 km/h (2 Bft) S 180 7,5 C 13,5 C
16.10.2012 14:56 13,4 C 67 % 1009,4 hPa 0,0 l/m 13,3 km/h (3 Bft) SW 225 7,4 C 13,4 C
16.10.2012 15:01 13,4 C 67 % 1009,3 hPa 0,0 l/m 8,3 km/h (2 Bft) S 180 7,4 C 13,4 C
16.10.2012 15:06 13,3 C 67 % 1009,4 hPa 0,0 l/m 9,7 km/h (2 Bft) S-SW 202 7,3 C 13,3 C
16.10.2012 15:11 13,2 C 67 % 1009,3 hPa 0,0 l/m 8,3 km/h (2 Bft) SW 225 7,2 C 13,2 C
16.10.2012 15:16 13,2 C 67 % 1009,1 hPa 0,0 l/m 17,3 km/h (3 Bft) SW 225 7,2 C 13,2 C
16.10.2012 15:21 13,2 C 66 % 1009,1 hPa 0,0 l/m 7,6 km/h (2 Bft) SW 225 7,0 C 13,2 C
16.10.2012 15:26 13,1 C 68 % 1009,1 hPa 0,0 l/m 9,0 km/h (2 Bft) S-SO 157 7,3 C 13,1 C
16.10.2012 15:31 13,0 C 69 % 1009,1 hPa 0,0 l/m 8,6 km/h (2 Bft) SW 225 7,4 C 13,0 C
16.10.2012 15:36 13,1 C 69 % 1009,0 hPa 0,0 l/m 18,0 km/h (3 Bft) S-SW 202 7,5 C 13,1 C
16.10.2012 15:41 13,1 C 69 % 1008,9 hPa 0,0 l/m 14,4 km/h (3 Bft) SO 135 7,5 C 13,1 C
16.10.2012 15:46 13,3 C 69 % 1008,9 hPa 0,0 l/m 18,4 km/h (3 Bft) S 180 7,7 C 13,3 C
16.10.2012 15:51 13,5 C 68 % 1008,9 hPa 0,0 l/m 18,0 km/h (3 Bft) S-SW 202 7,7 C 13,5 C
16.10.2012 15:56 13,5 C 67 % 1009,0 hPa 0,0 l/m 18,4 km/h (3 Bft) S-SW 202 7,5 C 13,5 C
16.10.2012 16:01 13,4 C 67 % 1009,1 hPa 0,0 l/m 9,0 km/h (2 Bft) S-SO 157 7,4 C 13,4 C
16.10.2012 16:06 13,3 C 66 % 1008,9 hPa 0,0 l/m 5,0 km/h (1 Bft) S-SW 202 7,1 C 13,3 C
16.10.2012 16:11 13,0 C 66 % 1008,8 hPa 0,0 l/m 11,5 km/h (2 Bft) S-SW 202 6,8 C 13,0 C
16.10.2012 16:16 12,9 C 67 % 1008,9 hPa 0,0 l/m 16,9 km/h (3 Bft) S 180 6,9 C 12,9 C
16.10.2012 16:21 12,8 C 67 % 1008,8 hPa 0,0 l/m 5,8 km/h (2 Bft) S-SW 202 6,8 C 12,8 C
16.10.2012 16:26 12,7 C 67 % 1008,8 hPa 0,0 l/m 8,3 km/h (2 Bft) S-SW 202 6,7 C 12,7 C
16.10.2012 16:31 12,6 C 67 % 1008,8 hPa 0,0 l/m 14,4 km/h (3 Bft) SW 225 6,6 C 12,6 C
16.10.2012 16:36 12,4 C 67 % 1008,7 hPa 0,0 l/m 18,0 km/h (3 Bft) S 180 6,4 C 12,4 C
16.10.2012 16:41 12,3 C 67 % 1008,7 hPa 0,0 l/m 14,0 km/h (3 Bft) S-SW 202 6,4 C 12,3 C
16.10.2012 16:46 12,2 C 68 % 1008,8 hPa 0,0 l/m 14,4 km/h (3 Bft) SW 225 6,5 C 12,2 C
16.10.2012 16:51 12,1 C 68 % 1008,7 hPa 0,0 l/m 5,0 km/h (1 Bft) SW 225 6,4 C 12,1 C
16.10.2012 16:56 12,0 C 68 % 1008,7 hPa 0,0 l/m 6,1 km/h (2 Bft) S-SO 157 6,3 C 12,0 C
16.10.2012 17:01 11,9 C 69 % 1008,6 hPa 0,0 l/m 5,0 km/h (1 Bft) S-SO 157 6,4 C 11,9 C
16.10.2012 17:06 11,8 C 69 % 1008,3 hPa 0,0 l/m 11,2 km/h (2 Bft) S 180 6,3 C 11,8 C
16.10.2012 17:11 11,7 C 69 % 1008,4 hPa 0,0 l/m 4,3 km/h (1 Bft) S 180 6,2 C 11,7 C
16.10.2012 17:16 11,6 C 70 % 1008,2 hPa 0,0 l/m 7,2 km/h (2 Bft) S-SW 202 6,3 C 11,6 C
16.10.2012 17:21 11,5 C 70 % 1008,4 hPa 0,0 l/m 4,0 km/h (1 Bft) S-SO 157 6,2 C 11,5 C
16.10.2012 17:26 11,4 C 70 % 1008,2 hPa 0,0 l/m 9,7 km/h (2 Bft) S-SO 157 6,1 C 11,4 C
16.10.2012 17:31 11,3 C 71 % 1008,3 hPa 0,0 l/m 4,3 km/h (1 Bft) S-SW 202 6,2 C 11,3 C
16.10.2012 17:36 11,3 C 71 % 1008,4 hPa 0,0 l/m 2,5 km/h (1 Bft) S-SW 202 6,2 C 11,3 C
16.10.2012 17:41 11,2 C 71 % 1008,6 hPa 0,0 l/m 2,9 km/h (1 Bft) S-SO 157 6,1 C 11,2 C
16.10.2012 17:46 11,1 C 71 % 1008,5 hPa 0,0 l/m 4,7 km/h (1 Bft) S 180 6,0 C 11,1 C
16.10.2012 17:51 11,1 C 71 % 1008,6 hPa 0,0 l/m 10,8 km/h (2 Bft) S-SO 157 6,0 C 11,1 C
16.10.2012 17:56 10,9 C 71 % 1008,4 hPa 0,0 l/m 7,2 km/h (2 Bft) S-SW 202 5,9 C 10,9 C
16.10.2012 18:01 10,9 C 71 % 1008,5 hPa 0,0 l/m 9,4 km/h (2 Bft) S 180 5,9 C 10,9 C
16.10.2012 18:06 10,9 C 71 % 1008,4 hPa 0,0 l/m 13,7 km/h (3 Bft) S-SW 202 5,9 C 10,9 C
16.10.2012 18:11 10,9 C 71 % 1008,2 hPa 0,0 l/m 13,0 km/h (3 Bft) S-SW 202 5,9 C 10,9 C
16.10.2012 18:16 10,9 C 71 % 1008,2 hPa 0,0 l/m 4,3 km/h (1 Bft) S-SW 202 5,9 C 10,9 C
16.10.2012 18:21 10,9 C 71 % 1008,4 hPa 0,0 l/m 5,8 km/h (2 Bft) S 180 5,9 C 10,9 C
16.10.2012 18:26 10,8 C 71 % 1008,4 hPa 0,0 l/m 4,7 km/h (1 Bft) S-SW 202 5,8 C 10,8 C
16.10.2012 18:31 10,8 C 72 % 1008,3 hPa 0,0 l/m 10,1 km/h (2 Bft) S-SW 202 6,0 C 10,8 C
16.10.2012 18:36 10,7 C 72 % 1008,5 hPa 0,0 l/m 7,2 km/h (2 Bft) SW 225 5,9 C 10,7 C
16.10.2012 18:41 10,6 C 72 % 1008,5 hPa 0,0 l/m 10,4 km/h (2 Bft) W-SW 247 5,8 C 10,6 C
16.10.2012 18:46 10,6 C 72 % 1008,6 hPa 0,0 l/m 5,0 km/h (1 Bft) S-SO 157 5,8 C 10,6 C
16.10.2012 18:51 10,6 C 72 % 1008,7 hPa 0,0 l/m 8,3 km/h (2 Bft) S 180 5,8 C 10,6 C
16.10.2012 18:56 10,6 C 71 % 1008,7 hPa 0,0 l/m 7,6 km/h (2 Bft) SW 225 5,6 C 10,6 C
16.10.2012 19:01 10,6 C 71 % 1008,7 hPa 0,0 l/m 6,1 km/h (2 Bft) SW 225 5,6 C 10,6 C
16.10.2012 19:06 10,6 C 72 % 1008,7 hPa 0,0 l/m 6,1 km/h (2 Bft) S 180 5,8 C 10,6 C
16.10.2012 19:11 10,5 C 72 % 1008,8 hPa 0,0 l/m 13,0 km/h (3 Bft) W-SW 247 5,7 C 10,5 C
16.10.2012 19:16 10,4 C 73 % 1008,9 hPa 0,0 l/m 7,2 km/h (2 Bft) S-SW 202 5,8 C 10,4 C
16.10.2012 19:21 10,4 C 74 % 1008,8 hPa 0,0 l/m 6,1 km/h (2 Bft) S-SW 202 6,0 C 10,4 C
16.10.2012 19:26 10,3 C 74 % 1008,9 hPa 0,0 l/m 6,5 km/h (2 Bft) S 180 5,9 C 10,3 C
16.10.2012 19:31 10,2 C 74 % 1009,0 hPa 0,0 l/m 9,4 km/h (2 Bft) S-SW 202 5,8 C 10,2 C
16.10.2012 19:36 10,1 C 75 % 1009,0 hPa 0,0 l/m 7,2 km/h (2 Bft) SW 225 5,9 C 10,1 C
16.10.2012 19:41 10,0 C 76 % 1009,1 hPa 0,0 l/m 7,6 km/h (2 Bft) S-SO 157 6,0 C 9,1 C
16.10.2012 19:46 9,9 C 76 % 1009,1 hPa 0,0 l/m 7,2 km/h (2 Bft) SW 225 5,9 C 9,1 C
16.10.2012 19:51 9,9 C 77 % 1009,1 hPa 0,0 l/m 7,6 km/h (2 Bft) S-SW 202 6,1 C 9,0 C
16.10.2012 19:56 9,9 C 77 % 1008,9 hPa 0,0 l/m 12,2 km/h (2 Bft) S-SW 202 6,1 C 8,2 C
16.10.2012 20:01 9,8 C 78 % 1009,1 hPa 0,0 l/m 10,8 km/h (2 Bft) S-SO 157 6,1 C 8,3 C
16.10.2012 20:06 9,8 C 78 % 1009,2 hPa 0,0 l/m 9,7 km/h (2 Bft) S-SW 202 6,1 C 8,4 C
16.10.2012 20:11 9,8 C 78 % 1009,3 hPa 0,0 l/m 5,8 km/h (2 Bft) S-SW 202 6,1 C 9,3 C
16.10.2012 20:16 9,8 C 78 % 1009,1 hPa 0,0 l/m 5,4 km/h (1 Bft) S-SW 202 6,1 C 9,4 C
16.10.2012 20:21 9,8 C 79 % 1009,2 hPa 0,0 l/m 5,8 km/h (2 Bft) S 180 6,3 C 9,3 C
16.10.2012 20:26 9,8 C 79 % 1009,2 hPa 0,0 l/m 6,1 km/h (2 Bft) S-SW 202 6,3 C 9,2 C
16.10.2012 20:31 9,7 C 79 % 1009,3 hPa 0,0 l/m 3,2 km/h (1 Bft) SW 225 6,2 C 9,7 C
16.10.2012 20:36 9,6 C 79 % 1009,4 hPa 0,0 l/m 6,5 km/h (2 Bft) SW 225 6,1 C 8,9 C
16.10.2012 20:41 9,6 C 79 % 1009,4 hPa 0,0 l/m 7,6 km/h (2 Bft) S-SW 202 6,1 C 8,6 C
16.10.2012 20:46 9,6 C 79 % 1009,5 hPa 0,0 l/m 3,6 km/h (1 Bft) W 270 6,1 C 9,6 C
16.10.2012 20:51 9,6 C 79 % 1009,6 hPa 0,0 l/m 2,5 km/h (1 Bft) SO 135 6,1 C 9,6 C
16.10.2012 20:56 9,6 C 80 % 1009,7 hPa 0,0 l/m 4,7 km/h (1 Bft) S 180 6,3 C 9,4 C
16.10.2012 21:01 9,5 C 80 % 1009,6 hPa 0,0 l/m 5,4 km/h (1 Bft) SW 225 6,2 C 9,1 C
16.10.2012 21:06 9,5 C 80 % 1009,5 hPa 0,0 l/m 0,0 km/h (0 Bft) S 180 6,2 C 9,5 C
16.10.2012 21:11 9,5 C 80 % 1009,7 hPa 0,0 l/m 11,9 km/h (2 Bft) S-SW 202 6,2 C 7,7 C
16.10.2012 21:16 9,5 C 80 % 1009,8 hPa 0,0 l/m 15,8 km/h (3 Bft) W-SW 247 6,2 C 7,2 C
16.10.2012 21:21 9,5 C 80 % 1009,8 hPa 0,0 l/m 3,6 km/h (1 Bft) W-SW 247 6,2 C 9,5 C
16.10.2012 21:26 9,5 C 79 % 1009,9 hPa 0,0 l/m 4,7 km/h (1 Bft) W-SW 247 6,0 C 9,3 C
16.10.2012 21:31 9,5 C 79 % 1009,9 hPa 0,0 l/m 4,0 km/h (1 Bft) S 180 6,0 C 9,5 C
16.10.2012 21:36 9,5 C 79 % 1009,9 hPa 0,0 l/m 4,7 km/h (1 Bft) S-SW 202 6,0 C 9,3 C
16.10.2012 21:41 9,4 C 79 % 1010,0 hPa 0,0 l/m 6,1 km/h (2 Bft) S-SW 202 5,9 C 8,8 C
16.10.2012 21:46 9,4 C 79 % 1010,2 hPa 0,0 l/m 2,9 km/h (1 Bft) S-SW 202 5,9 C 9,4 C
16.10.2012 21:51 9,3 C 79 % 1010,1 hPa 0,0 l/m 0,0 km/h (0 Bft) S-SW 202 5,8 C 9,3 C
16.10.2012 21:56 9,2 C 79 % 1010,2 hPa 0,0 l/m 7,6 km/h (2 Bft) W-SW 247 5,8 C 8,2 C
16.10.2012 22:01 9,1 C 80 % 1010,2 hPa 0,0 l/m 6,5 km/h (2 Bft) S-SW 202 5,8 C 8,3 C
16.10.2012 22:06 9,1 C 80 % 1010,3 hPa 0,0 l/m 8,6 km/h (2 Bft) W-SW 247 5,8 C 7,8 C
16.10.2012 22:11 9,0 C 80 % 1010,2 hPa 0,0 l/m 5,8 km/h (2 Bft) S-SW 202 5,7 C 8,4 C
16.10.2012 22:16 8,9 C 81 % 1010,3 hPa 0,0 l/m 7,2 km/h (2 Bft) W-SW 247 5,8 C 7,9 C
16.10.2012 22:21 8,9 C 81 % 1010,0 hPa 0,0 l/m 2,9 km/h (1 Bft) SW 225 5,8 C 8,9 C
16.10.2012 22:26 8,9 C 81 % 1010,0 hPa 0,0 l/m 3,6 km/h (1 Bft) S 180 5,8 C 8,9 C
16.10.2012 22:31 8,9 C 81 % 1010,0 hPa 0,0 l/m 3,6 km/h (1 Bft) S-SW 202 5,8 C 8,9 C
16.10.2012 22:36 8,9 C 81 % 1010,0 hPa 0,0 l/m 4,0 km/h (1 Bft) W 270 5,8 C 8,9 C
16.10.2012 22:41 8,9 C 81 % 1010,0 hPa 0,0 l/m 6,1 km/h (2 Bft) W-SW 247 5,8 C 8,2 C
16.10.2012 22:46 8,9 C 81 % 1010,1 hPa 0,0 l/m 4,3 km/h (1 Bft) S-SW 202 5,8 C 8,9 C
16.10.2012 22:51 8,9 C 81 % 1010,2 hPa 0,0 l/m 9,7 km/h (2 Bft) S-SW 202 5,8 C 7,4 C
16.10.2012 22:56 8,9 C 81 % 1010,2 hPa 0,0 l/m 6,5 km/h (2 Bft) W-SW 247 5,8 C 8,1 C
16.10.2012 23:01 8,9 C 81 % 1010,2 hPa 0,0 l/m 8,6 km/h (2 Bft) W 270 5,8 C 7,6 C
16.10.2012 23:06 8,9 C 81 % 1010,3 hPa 0,0 l/m 4,0 km/h (1 Bft) W-SW 247 5,8 C 8,9 C
16.10.2012 23:11 8,9 C 81 % 1010,2 hPa 0,0 l/m 4,0 km/h (1 Bft) S-SW 202 5,8 C 8,9 C
16.10.2012 23:16 8,9 C 81 % 1010,4 hPa 0,0 l/m 20,2 km/h (4 Bft) W-SW 247 5,8 C 6,0 C
16.10.2012 23:21 8,9 C 81 % 1010,3 hPa 0,0 l/m 4,0 km/h (1 Bft) W 270 5,8 C 8,9 C
16.10.2012 23:26 8,9 C 81 % 1010,3 hPa 0,0 l/m 3,2 km/h (1 Bft) W 270 5,8 C 8,9 C
16.10.2012 23:31 8,9 C 81 % 1010,4 hPa 0,0 l/m 7,6 km/h (2 Bft) W 270 5,8 C 7,8 C
16.10.2012 23:36 8,8 C 81 % 1010,4 hPa 0,0 l/m 6,5 km/h (2 Bft) S-SW 202 5,7 C 8,0 C
16.10.2012 23:41 8,9 C 81 % 1010,6 hPa 0,0 l/m 7,6 km/h (2 Bft) W 270 5,8 C 7,8 C
16.10.2012 23:46 8,8 C 81 % 1010,7 hPa 0,0 l/m 4,3 km/h (1 Bft) W 270 5,7 C 8,8 C
16.10.2012 23:51 8,8 C 81 % 1010,7 hPa 0,0 l/m 5,8 km/h (2 Bft) SW 225 5,7 C 8,1 C
16.10.2012 23:56 8,7 C 81 % 1010,5 hPa 0,0 l/m 7,6 km/h (2 Bft) W-SW 247 5,6 C 7,6 C
_ Min-Zeit 06:16 15:21 17:16 - 01:11 - - 06:16 06:46
Minimum _ 4,2 C 66 % 1008,2 hPa - 0,0 km/h (0 Bft) - - 2,9 C 0,7 C
_ Max-Zeit 14:36 06:31 01:51 00:01 14:46 - - 14:06 14:36
Maximum _ 13,7 C 92 % 1011,0 hPa 0,0 l/m 21,6 km/h
SW (4 Bft)
- - 8,4 C 13,7 C
Durchschnitt _ 8,1 C 82 % 1010,1 hPa #0,0 l/m 7,3 km/h (2 Bft) S-SW - 5,2 C 7,4 C
(c) by David Heller